Bei Facebook empfehlenBei Twitter postenGoogle plusPinterest

Das Wetter im Erzgebirge am 04.03.2017

Wetter und Klima am 04.03.2017 Holzhau im Erzgebirge (630m ü.NN)
Letzte gemessene Temperatur und Uhrzeit der Messung23:45:00 Uhr7.80 °C
Temperatur (Maximum / Höchstwert) und Uhrzeit der Messung13:45:00 Uhr11.70 °C
Temperatur (Minimum / Tiefstwert) und Uhrzeit der Messung07:00:002.40 °C
Errechneter Absolutwert der Temperaturschwankungen zwischen Tmin und Tmax des Tages9.30 K
Errechnete Tagesmitteltemperatur6.63438 °C
Gesamt - Niederschlag des Tages (in flüssiger Form)0.00 Liter / m²
Luftdruck (Maximum / Höchstwert) und Zeitpunkt der Messung00:00:00 Uhr1001.90 hPa
Luftdruck (Minimum / Tiefstwert) und Zeitpunkt der Messung20:45:00 Uhr991.70 hPa
Errechneter Absolutwert der Luftdruckschwankungen des Tages10.20 hPa
Höchste gemessene Windgeschwindigkeit und Uhrzeit der Messung20:30:00 Uhr16.92 km/h
Errechnete Windhäufigkeit in Relation zu den Messwerten des Tages55.20833 %
Niedrigste Windkühle (Windchill) und Zeitpunkt der Messung08:30:00 Uhr0.60 °C
Taupunkt (Maximum / Höchstwert) und Uhrzeit der Messung20:45:00 Uhr3.80 °C
Taupunkt (Minimum / Tiefstwert) und Uhrzeit der Messung03:45:00-2.40 °C
Anzahl der automatisch eingelesenen Messwerte 96

Detaillierte Wetter- und Klima- Messwerte für den 04.03.2017 in Holzhau im Erzgebirge (630m ü.NN)
ZeitTemperaturLuftdruckRel. LuftfeuchteWindWindrichtungWindchillTaupunktNiederschlag l/m²
23:45:007.80 °C992.70 hPa73.00 %1.44 km/hOSO7.80 °C3.30 °C 
23:30:007.90 °C992.50 hPa72.00 %3.20 °C 
23:15:008.10 °C992.20 hPa72.00 %3.40 °C 
23:00:008.10 °C991.90 hPa72.00 %3.40 °C 
22:45:008.20 °C991.90 hPa72.00 %1.44 km/hNO8.20 °C3.50 °C 
22:30:008.40 °C992.00 hPa71.00 %3.50 °C 
22:15:008.40 °C992.30 hPa71.00 %7.20 km/hSO7.30 °C3.50 °C 
22:00:008.60 °C992.00 hPa70.00 %6.84 km/hOSO7.60 °C3.40 °C 
21:45:008.60 °C992.10 hPa70.00 %3.60 km/hSSO8.60 °C3.40 °C 
21:30:008.60 °C992.10 hPa71.00 %3.60 km/hSO8.60 °C3.60 °C 
21:15:008.50 °C991.90 hPa71.00 %3.60 °C 
21:00:008.60 °C991.90 hPa71.00 %3.60 °C 
20:45:008.50 °C991.70 hPa72.00 %6.12 km/hO7.70 °C3.80 °C 
20:30:008.30 °C991.80 hPa72.00 %16.92 km/hOSO5.60 °C3.60 °C 
20:15:008.20 °C991.70 hPa73.00 %3.70 °C 
20:00:008.10 °C991.70 hPa73.00 %3.60 °C 
19:45:008.10 °C991.80 hPa73.00 %3.60 °C 
19:30:008.10 °C991.90 hPa73.00 %5.76 km/hO7.40 °C3.60 °C 
19:15:008.10 °C991.90 hPa73.00 %10.08 km/hOSO6.30 °C3.60 °C 
19:00:007.90 °C991.90 hPa74.00 %5.04 km/hSO7.40 °C3.60 °C 
18:45:007.60 °C992.40 hPa74.00 %7.20 km/hSO6.40 °C3.30 °C 
18:30:007.60 °C992.70 hPa73.00 %3.10 °C 
18:15:007.80 °C993.20 hPa73.00 %3.30 °C 
18:00:007.90 °C993.50 hPa72.00 %3.20 °C 
17:45:008.00 °C993.50 hPa72.00 %7.56 km/hOSO6.80 °C3.30 °C 
17:30:008.20 °C993.40 hPa71.00 %4.68 km/hSO8.20 °C3.30 °C 
17:15:008.30 °C993.30 hPa70.00 %13.32 km/hONO6.10 °C3.20 °C 
17:00:008.50 °C993.70 hPa69.00 %5.04 km/hOSO8.00 °C3.10 °C 
16:45:008.80 °C994.20 hPa68.00 %3.20 °C 
16:30:009.10 °C994.20 hPa67.00 %3.30 °C 
16:15:009.30 °C994.30 hPa65.00 %3.10 °C 
16:00:009.90 °C994.60 hPa63.00 %6.12 km/hO9.30 °C3.20 °C 
15:45:0010.70 °C995.10 hPa61.00 %7.20 km/hOSO10.00 °C3.50 °C 
15:30:0011.10 °C995.10 hPa60.00 %7.92 km/hSO10.30 °C3.60 °C 
15:15:0011.10 °C995.20 hPa60.00 %8.64 km/hOSO10.20 °C3.60 °C 
15:00:0010.60 °C995.10 hPa61.00 %3.40 °C 
14:45:0010.30 °C995.50 hPa61.00 %7.92 km/hSO9.40 °C3.10 °C 
14:30:0010.40 °C995.50 hPa61.00 %2.88 km/hSO10.40 °C3.20 °C 
14:15:0010.70 °C996.00 hPa60.00 %3.96 km/hSW10.70 °C3.30 °C 
14:00:0011.40 °C995.80 hPa57.00 %3.20 °C 
13:45:0011.70 °C995.90 hPa57.00 %6.48 km/hOSO11.30 °C3.50 °C 
13:30:0011.00 °C996.00 hPa58.00 %9.00 km/hSO10.00 °C3.10 °C 
13:15:0010.90 °C996.40 hPa58.00 %7.56 km/hSSW10.20 °C3.00 °C 
13:00:0010.90 °C996.40 hPa58.00 %3.00 °C 
12:45:0010.90 °C996.90 hPa58.00 %11.52 km/hSSO9.50 °C3.00 °C 
12:30:0010.40 °C997.10 hPa59.00 %2.52 km/hONO10.40 °C2.70 °C 
12:15:0010.10 °C997.10 hPa60.00 %1.08 km/hSSW10.10 °C2.70 °C 
12:00:009.90 °C997.20 hPa60.00 %9.36 km/hOSO8.60 °C2.50 °C 
11:45:009.30 °C997.30 hPa63.00 %8.64 km/hSSO8.10 °C2.60 °C 
11:30:009.30 °C997.60 hPa63.00 %14.40 km/hSO7.10 °C2.60 °C 
11:15:008.90 °C997.70 hPa64.00 %9.36 km/hSSO7.40 °C2.50 °C 
11:00:008.60 °C997.80 hPa66.00 %5.04 km/hSSO8.20 °C2.60 °C 
10:45:008.40 °C997.70 hPa67.00 %6.84 km/hONO7.40 °C2.60 °C 
10:30:007.60 °C997.90 hPa70.00 %4.68 km/hSSW7.60 °C2.50 °C 
10:15:007.20 °C997.90 hPa72.00 %8.64 km/hSO5.60 °C2.50 °C 
10:00:006.50 °C998.00 hPa74.00 %2.52 km/hO6.50 °C2.20 °C 
09:45:005.80 °C998.20 hPa76.00 %6.84 km/hO4.40 °C1.90 °C 
09:30:005.30 °C998.30 hPa78.00 %10.80 km/hOSO2.90 °C1.80 °C 
09:15:005.10 °C998.30 hPa79.00 %15.84 km/hSO1.70 °C1.80 °C 
09:00:004.60 °C998.50 hPa80.00 %1.50 °C 
08:45:004.30 °C998.50 hPa80.00 %1.20 °C 
08:30:003.90 °C998.70 hPa80.00 %14.04 km/hSO0.60 °C0.80 °C 
08:15:003.30 °C998.50 hPa80.00 %0.20 °C 
08:00:002.90 °C998.80 hPa80.00 %2.88 km/hOSO2.90 °C-0.20 °C 
07:45:003.00 °C998.80 hPa79.00 %-0.30 °C 
07:30:003.20 °C998.70 hPa77.00 %-0.40 °C 
07:15:002.80 °C999.00 hPa77.00 %6.48 km/hONO1.00 °C-0.80 °C 
07:00:002.40 °C999.20 hPa76.00 %-1.40 °C 
06:45:002.40 °C999.20 hPa75.00 %-1.60 °C 
06:30:002.60 °C999.50 hPa75.00 %-1.40 °C 
06:15:002.50 °C999.50 hPa74.00 %-1.70 °C 
06:00:002.60 °C999.70 hPa72.00 %-1.90 °C 
05:45:002.70 °C999.70 hPa71.00 %-2.00 °C 
05:30:002.90 °C999.90 hPa70.00 %-2.00 °C 
05:15:003.10 °C999.80 hPa69.00 %-2.00 °C 
05:00:003.30 °C1000.00 hPa68.00 %-2.00 °C 
04:45:003.60 °C1000.10 hPa67.00 %-1.90 °C 
04:30:003.60 °C1000.10 hPa67.00 %0.72 km/hNNO3.60 °C-1.90 °C 
04:15:003.50 °C1000.10 hPa67.00 %-2.00 °C 
04:00:002.80 °C1000.30 hPa69.00 %1.44 km/hOSO2.80 °C-2.30 °C 
03:45:002.70 °C1000.10 hPa69.00 %-2.40 °C 
03:30:003.10 °C1000.30 hPa68.00 %1.80 km/hOSO3.10 °C-2.20 °C 
03:15:003.30 °C1000.50 hPa68.00 %8.28 km/hSO1.10 °C-2.00 °C 
03:00:003.00 °C1000.60 hPa69.00 %1.44 km/hSO3.00 °C-2.10 °C 
02:45:003.10 °C1000.70 hPa68.00 %-2.20 °C 
02:30:003.30 °C1000.80 hPa68.00 %-2.00 °C 
02:15:003.50 °C1001.00 hPa68.00 %5.40 km/hOSO2.20 °C-1.80 °C 
02:00:003.20 °C1001.40 hPa69.00 %2.88 km/hSO3.20 °C-1.90 °C 
01:45:002.90 °C1001.60 hPa70.00 %-2.00 °C 
01:30:002.90 °C1001.60 hPa69.00 %-2.20 °C 
01:15:003.20 °C1001.60 hPa68.00 %1.44 km/hSO3.20 °C-2.10 °C 
01:00:003.10 °C1001.50 hPa68.00 %-2.20 °C 
00:45:003.10 °C1001.50 hPa68.00 %3.24 km/hOSO3.10 °C-2.20 °C 
00:30:003.30 °C1001.70 hPa68.00 %-2.00 °C 
00:15:003.50 °C1001.80 hPa67.00 %-2.00 °C 
00:00:003.50 °C1001.90 hPa66.00 %-2.20 °C 

Permanenter Link zu dieser Seite: Wetter im Erzgebirge am 04.03.2017
Performance-Info: Die Erstellung der Seite / Statistik(en) / Tabelle(n) erforderte 5 Datenbankserver-Abfrage(n) und dauerte 102 Millisekunden. (Dieser Messwert ist von der Gesamt-Auslastung des Servers abhängig.)
Erzgebirge - Wetter | Erzgebirge - Wetter (Mobilgeräte) | Komplette Klimadatenbank